Time;durP1;ratioP1;P1;durP2;ratioP2;P2;SDS_P1;SDS_P2;PMS_P1;PMS_P2;Temp;Humidity;BMP_temperature;BMP_pressure;BME280_temperature;BME280_humidity;BME280_pressure;Samples;Min_cycle;Max_cycle;Signal;HPM_P1;HPM_P2
2021/10/01 00:00:59;;;;;;;1.60;1.07;;;13.60;99.90;;;;;;5022519;28;20461;-72
2021/10/01 00:03:29;;;;;;;1.27;1.17;;;13.60;99.90;;;;;;5023201;28;20463;-75
2021/10/01 00:05:57;;;;;;;1.07;0.97;;;13.60;99.90;;;;;;5024588;28;20448;-75
2021/10/01 00:08:25;;;;;;;1.23;1.17;;;13.60;99.90;;;;;;5022918;28;20535;-77
2021/10/01 00:10:53;;;;;;;1.20;1.03;;;13.60;99.90;;;;;;5019393;28;20471;-75
2021/10/01 00:13:21;;;;;;;1.67;1.10;;;13.50;99.90;;;;;;5017921;28;20476;-75
2021/10/01 00:15:49;;;;;;;1.20;1.10;;;13.60;99.90;;;;;;5024489;28;20451;-74
2021/10/01 00:18:17;;;;;;;2.30;1.40;;;13.60;99.90;;;;;;5025029;28;20468;-74
2021/10/01 00:20:47;;;;;;;1.00;1.00;;;13.60;99.90;;;;;;5023867;28;20448;-75
2021/10/01 00:23:15;;;;;;;1.20;1.10;;;13.50;99.90;;;;;;5019201;28;21015;-75
2021/10/01 00:25:43;;;;;;;1.73;1.10;;;13.40;99.90;;;;;;5017247;28;20472;-75
2021/10/01 00:28:11;;;;;;;1.60;1.20;;;13.50;99.90;;;;;;5012893;28;20468;-73
2021/10/01 00:30:40;;;;;;;1.53;1.20;;;13.40;99.90;;;;;;5021586;28;20458;-73
2021/10/01 00:33:08;;;;;;;3.43;1.13;;;13.40;99.90;;;;;;5024283;28;20478;-73
2021/10/01 00:35:36;;;;;;;1.40;1.30;;;13.40;99.90;;;;;;5025510;28;20505;-76
2021/10/01 00:38:05;;;;;;;1.93;1.40;;;13.30;99.90;;;;;;5022986;28;20535;-74
2021/10/01 00:40:33;;;;;;;2.13;1.20;;;13.40;99.90;;;;;;5022741;28;20459;-77
2021/10/01 00:43:01;;;;;;;1.17;0.80;;;13.40;99.90;;;;;;5023490;28;20475;-78
2021/10/01 00:45:30;;;;;;;1.33;1.00;;;13.30;99.90;;;;;;5012435;28;21049;-73
2021/10/01 00:47:58;;;;;;;1.43;0.80;;;13.30;99.90;;;;;;5036014;28;20467;-75
2021/10/01 00:50:26;;;;;;;0.83;0.83;;;13.40;99.90;;;;;;5022373;28;20463;-75
2021/10/01 00:52:54;;;;;;;0.87;0.87;;;13.50;99.90;;;;;;5022483;28;20507;-72
2021/10/01 00:55:24;;;;;;;0.83;0.80;;;13.40;99.90;;;;;;5021028;28;20509;-77
2021/10/01 00:57:52;;;;;;;1.43;1.17;;;13.40;99.90;;;;;;5022862;28;20534;-74
2021/10/01 01:00:26;;;;;;;0.70;0.70;;;13.30;99.90;;;;;;5022153;28;20451;-77
2021/10/01 01:02:57;;;;;;;1.53;0.90;;;13.30;99.90;;;;;;5022646;28;20469;-76
2021/10/01 01:05:33;;;;;;;2.17;1.20;;;13.30;99.90;;;;;;5016803;28;20470;-73
2021/10/01 01:08:08;;;;;;;1.47;0.80;;;13.30;99.90;;;;;;5019466;28;20882;-75
2021/10/01 01:10:44;;;;;;;1.00;0.90;;;13.30;99.90;;;;;;5019443;28;20458;-77
2021/10/01 01:13:20;;;;;;;2.17;0.90;;;13.30;99.90;;;;;;5019893;28;20544;-74
2021/10/01 01:15:55;;;;;;;2.60;0.70;;;13.30;99.90;;;;;;5018651;28;20452;-73
2021/10/01 01:18:29;;;;;;;2.37;1.00;;;13.30;99.90;;;;;;5015782;28;21229;-73
2021/10/01 01:20:59;;;;;;;1.23;0.93;;;13.30;99.90;;;;;;5018527;28;20509;-73
2021/10/01 01:23:43;;;;;;;0.83;0.73;;;13.30;99.90;;;;;;5020256;28;20909;-73
2021/10/01 01:26:22;;;;;;;1.43;0.97;;;13.30;99.90;;;;;;5021846;28;21372;-73
2021/10/01 01:29:06;;;;;;;0.90;0.90;;;13.30;99.90;;;;;;5022157;28;20471;-72
2021/10/01 01:31:42;;;;;;;3.73;0.97;;;13.30;99.90;;;;;;5020907;28;20509;-74
2021/10/01 01:34:18;;;;;;;1.10;0.80;;;13.20;99.90;;;;;;5020116;28;20495;-72
2021/10/01 01:36:48;;;;;;;0.70;0.70;;;13.30;99.90;;;;;;5010864;28;20540;-74
2021/10/01 01:39:17;;;;;;;1.17;0.80;;;13.30;99.90;;;;;;5018193;28;20461;-74
2021/10/01 01:41:47;;;;;;;0.70;0.70;;;13.30;99.90;;;;;;5022554;28;20836;-75
2021/10/01 01:44:16;;;;;;;1.90;1.03;;;13.30;99.90;;;;;;5014581;28;20467;-73
2021/10/01 01:46:45;;;;;;;1.03;0.93;;;13.30;99.90;;;;;;5023337;28;20451;-74
2021/10/01 01:49:17;;;;;;;0.93;0.93;;;13.30;99.90;;;;;;5020176;28;20466;-74
2021/10/01 01:51:46;;;;;;;0.80;0.80;;;13.30;99.90;;;;;;5023016;28;20550;-76
2021/10/01 01:54:15;;;;;;;1.57;0.87;;;13.30;99.90;;;;;;5030565;28;20530;-74
2021/10/01 01:56:43;;;;;;;1.87;1.10;;;13.30;99.90;;;;;;5022360;28;20499;-75
2021/10/01 01:59:12;;;;;;;0.87;0.83;;;13.30;99.90;;;;;;5019016;28;20540;-75
2021/10/01 02:01:42;;;;;;;4.83;0.90;;;13.30;99.90;;;;;;5022608;28;20447;-75
2021/10/01 02:04:14;;;;;;;1.20;0.70;;;13.30;99.90;;;;;;5020911;28;20483;-74
2021/10/01 02:06:44;;;;;;;1.00;0.90;;;13.30;99.90;;;;;;5022158;28;20487;-77
2021/10/01 02:09:13;;;;;;;0.70;0.70;;;13.30;99.90;;;;;;5019928;28;20506;-77
2021/10/01 02:11:43;;;;;;;1.10;0.87;;;13.30;99.90;;;;;;5020568;28;20513;-74
2021/10/01 02:14:12;;;;;;;1.67;0.90;;;13.20;99.90;;;;;;5020176;28;20485;-74
2021/10/01 02:16:43;;;;;;;1.30;0.87;;;13.20;99.90;;;;;;5022338;28;20945;-73
2021/10/01 02:19:13;;;;;;;1.27;0.83;;;13.20;99.90;;;;;;5019256;28;20465;-75
2021/10/01 02:21:44;;;;;;;2.80;1.37;;;13.20;99.90;;;;;;5021480;28;20454;-74
2021/10/01 02:24:17;;;;;;;1.40;1.00;;;13.20;99.90;;;;;;5020622;28;20536;-75
2021/10/01 02:26:51;;;;;;;1.43;0.80;;;13.10;99.90;;;;;;5018543;28;20476;-75
2021/10/01 02:29:26;;;;;;;1.03;0.90;;;13.20;99.90;;;;;;5019366;28;20463;-75
2021/10/01 02:31:58;;;;;;;1.63;0.90;;;13.20;99.90;;;;;;5020925;28;20548;-74
2021/10/01 02:34:34;;;;;;;1.53;0.90;;;13.10;99.90;;;;;;5018487;28;20861;-77
2021/10/01 02:37:05;;;;;;;1.83;1.37;;;13.10;99.90;;;;;;5021520;28;21022;-75
2021/10/01 02:39:35;;;;;;;1.10;1.00;;;13.10;99.90;;;;;;5016370;28;20455;-77
2021/10/01 02:42:04;;;;;;;1.30;1.20;;;13.10;99.90;;;;;;5021081;28;20441;-74
2021/10/01 02:44:32;;;;;;;1.77;0.93;;;13.10;99.90;;;;;;5015374;28;20482;-74
2021/10/01 02:47:00;;;;;;;2.03;0.80;;;13.00;99.90;;;;;;5021567;28;20991;-74
2021/10/01 02:49:30;;;;;;;1.23;0.83;;;13.00;99.90;;;;;;5020356;28;21073;-76
2021/10/01 02:52:01;;;;;;;1.37;1.27;;;13.10;99.90;;;;;;5020760;28;20462;-74
2021/10/01 02:54:36;;;;;;;1.00;0.90;;;13.00;99.90;;;;;;5020174;28;20477;-73
2021/10/01 02:57:11;;;;;;;1.80;1.10;;;13.00;99.90;;;;;;5009710;28;21120;-75
2021/10/01 02:59:40;;;;;;;1.23;1.07;;;13.00;99.90;;;;;;5013984;28;20468;-73
2021/10/01 03:02:10;;;;;;;3.00;1.30;;;13.00;99.90;;;;;;5008918;28;20875;-75
2021/10/01 03:04:39;;;;;;;1.13;1.00;;;12.90;99.90;;;;;;5010448;28;20527;-73
2021/10/01 03:07:09;;;;;;;1.27;0.97;;;13.10;99.90;;;;;;5011443;28;20461;-73
2021/10/01 03:09:39;;;;;;;1.70;1.30;;;12.80;99.90;;;;;;5017387;28;20544;-74
2021/10/01 03:12:08;;;;;;;2.60;1.40;;;12.80;99.90;;;;;;5015292;28;20458;-73
2021/10/01 03:14:37;;;;;;;1.13;1.03;;;12.90;99.90;;;;;;5014511;28;20497;-72
2021/10/01 03:17:06;;;;;;;1.30;1.13;;;12.90;99.90;;;;;;5010253;28;20534;-73
2021/10/01 03:19:35;;;;;;;1.07;0.90;;;12.90;99.90;;;;;;5013057;28;20464;-75
2021/10/01 03:22:05;;;;;;;1.07;0.97;;;12.90;99.90;;;;;;5013458;28;20461;-72
2021/10/01 03:24:33;;;;;;;1.73;1.10;;;12.90;99.90;;;;;;5018321;28;20531;-73
2021/10/01 03:27:03;;;;;;;2.37;1.13;;;13.00;99.90;;;;;;5019397;28;20858;-74
2021/10/01 03:29:32;;;;;;;1.90;0.83;;;12.80;99.90;;;;;;5019209;28;20452;-77
2021/10/01 03:32:03;;;;;;;1.17;1.07;;;12.70;99.90;;;;;;5020739;28;20460;-76
2021/10/01 03:34:32;;;;;;;0.90;0.90;;;12.70;99.90;;;;;;5019606;28;20534;-77
2021/10/01 03:37:00;;;;;;;1.17;1.07;;;12.70;99.90;;;;;;5011627;28;20457;-74
2021/10/01 03:39:28;;;;;;;1.37;1.10;;;12.60;99.90;;;;;;5016966;28;20445;-77
2021/10/01 03:41:57;;;;;;;1.23;1.00;;;12.60;99.90;;;;;;5019751;28;20830;-77
2021/10/01 03:44:26;;;;;;;0.93;0.90;;;12.60;99.90;;;;;;5021257;28;20472;-76
2021/10/01 03:46:54;;;;;;;1.90;1.17;;;12.50;99.90;;;;;;5021675;28;20512;-77
2021/10/01 03:49:22;;;;;;;1.50;1.40;;;12.60;99.90;;;;;;5021669;28;20852;-77
2021/10/01 03:51:51;;;;;;;1.53;1.10;;;12.60;99.90;;;;;;5019057;28;20464;-76
2021/10/01 03:54:19;;;;;;;1.20;1.00;;;12.50;99.90;;;;;;5021781;28;20465;-75
2021/10/01 03:56:47;;;;;;;3.63;1.17;;;12.60;99.90;;;;;;5020614;28;20494;-75
2021/10/01 03:59:15;;;;;;;1.40;1.10;;;12.60;99.90;;;;;;5017463;28;20466;-75
2021/10/01 04:01:44;;;;;;;2.37;1.00;;;12.60;99.90;;;;;;5009289;28;20524;-75
2021/10/01 04:04:13;;;;;;;1.30;1.20;;;12.60;99.90;;;;;;5017197;28;20538;-76
2021/10/01 04:06:41;;;;;;;3.07;1.50;;;12.60;99.90;;;;;;5020666;28;21239;-74
2021/10/01 04:09:09;;;;;;;1.50;1.20;;;12.60;99.90;;;;;;5013104;28;21010;-74
2021/10/01 04:11:38;;;;;;;1.00;0.90;;;12.50;99.90;;;;;;5017178;28;20800;-74
2021/10/01 04:14:06;;;;;;;1.10;1.00;;;12.50;99.90;;;;;;5019908;28;20509;-74
2021/10/01 04:16:35;;;;;;;1.03;0.93;;;12.60;99.90;;;;;;5019227;28;20476;-73
2021/10/01 04:19:09;;;;;;;1.10;1.00;;;12.50;99.90;;;;;;5019865;28;20458;-74
2021/10/01 04:21:37;;;;;;;1.60;1.30;;;12.60;99.90;;;;;;5014564;28;20471;-74
2021/10/01 04:24:05;;;;;;;1.85;1.70;;;12.70;99.90;;;;;;5023651;28;20449;-76
2021/10/01 04:26:33;;;;;;;1.40;1.30;;;12.50;99.90;;;;;;5030558;28;20203;-75
2021/10/01 04:29:01;;;;;;;1.47;1.37;;;12.20;99.90;;;;;;5027611;28;20460;-75
2021/10/01 04:31:30;;;;;;;1.73;1.10;;;11.90;99.90;;;;;;5031024;28;20459;-75
2021/10/01 04:33:58;;;;;;;1.60;1.40;;;11.70;99.90;;;;;;5031154;28;21145;-73
2021/10/01 04:36:31;;;;;;;1.20;1.10;;;11.60;99.90;;;;;;5027818;28;20481;-77
2021/10/01 04:38:59;;;;;;;2.20;1.30;;;11.50;99.90;;;;;;5020834;28;21011;-77
2021/10/01 04:41:27;;;;;;;2.07;1.20;;;11.90;99.90;;;;;;5020860;28;20511;-77
2021/10/01 04:43:56;;;;;;;2.13;1.30;;;12.10;99.90;;;;;;5018110;28;20476;-79
2021/10/01 04:46:24;;;;;;;1.20;1.10;;;12.20;99.90;;;;;;5018361;28;20563;-77
2021/10/01 04:48:52;;;;;;;1.70;1.30;;;12.20;99.90;;;;;;5019363;28;20462;-77
2021/10/01 04:51:20;;;;;;;2.93;1.30;;;12.20;99.90;;;;;;5020870;28;21230;-77
2021/10/01 04:53:50;;;;;;;1.07;0.97;;;12.30;99.90;;;;;;5018647;28;21166;-78
2021/10/01 04:56:19;;;;;;;1.73;1.27;;;12.30;99.90;;;;;;5019518;28;20472;-76
2021/10/01 04:58:47;;;;;;;0.90;0.90;;;12.30;99.90;;;;;;5017290;28;20991;-76
2021/10/01 05:01:15;;;;;;;1.73;1.00;;;12.30;99.90;;;;;;5020564;28;21326;-79
2021/10/01 05:03:44;;;;;;;1.17;1.07;;;12.30;99.90;;;;;;5018670;28;21520;-77
2021/10/01 05:06:12;;;;;;;2.00;1.03;;;12.30;99.90;;;;;;5011742;28;20542;-79
2021/10/01 05:08:40;;;;;;;1.33;1.10;;;12.40;99.90;;;;;;5018994;28;20461;-75
2021/10/01 05:11:09;;;;;;;1.13;1.00;;;12.30;99.90;;;;;;5014254;28;20875;-78
2021/10/01 05:13:37;;;;;;;1.37;1.10;;;12.30;99.90;;;;;;5018452;28;20475;-77
2021/10/01 05:16:06;;;;;;;1.40;1.20;;;12.30;99.90;;;;;;5012485;28;20520;-75
2021/10/01 05:18:34;;;;;;;1.50;1.27;;;12.30;99.90;;;;;;5010679;28;20474;-77
2021/10/01 05:21:03;;;;;;;2.00;1.00;;;12.30;99.90;;;;;;5018999;28;20454;-76
2021/10/01 05:23:32;;;;;;;1.40;1.13;;;12.30;99.90;;;;;;5020424;28;20484;-77
2021/10/01 05:26:00;;;;;;;1.23;1.13;;;12.30;99.90;;;;;;5021047;28;20458;-78
2021/10/01 05:28:30;;;;;;;2.03;1.50;;;12.30;99.90;;;;;;5019473;28;20510;-78
2021/10/01 05:30:58;;;;;;;1.10;0.97;;;12.30;99.90;;;;;;5009511;28;20465;-78
2021/10/01 05:33:26;;;;;;;3.30;1.20;;;12.30;99.90;;;;;;5014949;28;20484;-78
2021/10/01 05:35:54;;;;;;;1.10;1.00;;;12.30;99.90;;;;;;5019508;28;20465;-79
2021/10/01 05:38:24;;;;;;;1.10;1.10;;;12.30;99.90;;;;;;5010746;28;20945;-77
2021/10/01 05:40:52;;;;;;;1.67;1.30;;;12.30;99.90;;;;;;5015601;28;20457;-78
2021/10/01 05:43:24;;;;;;;2.03;1.83;;;12.30;99.90;;;;;;5010515;28;20475;-78
2021/10/01 05:45:56;;;;;;;6.50;2.87;;;12.30;99.90;;;;;;5008784;28;20464;-78
2021/10/01 05:48:26;;;;;;;4.87;3.43;;;12.30;99.90;;;;;;5015455;28;20459;-78
2021/10/01 05:50:57;;;;;;;2.80;2.13;;;12.30;99.90;;;;;;5011970;28;20457;-78
2021/10/01 05:53:37;;;;;;;1.90;1.67;;;12.20;99.90;;;;;;5012350;28;21051;-79
2021/10/01 05:56:07;;;;;;;1.97;1.40;;;12.20;99.90;;;;;;5014520;28;20476;-79
2021/10/01 05:58:36;;;;;;;2.17;1.20;;;12.20;99.90;;;;;;5022017;28;20476;-78
2021/10/01 06:01:06;;;;;;;1.47;1.10;;;12.20;99.90;;;;;;5022051;28;20945;-79
2021/10/01 06:03:35;;;;;;;2.50;1.50;;;12.30;99.90;;;;;;5020731;28;20479;-79
2021/10/01 06:06:04;;;;;;;2.87;1.10;;;12.30;99.90;;;;;;5011650;28;20918;-78
2021/10/01 06:08:32;;;;;;;1.77;1.10;;;12.40;99.90;;;;;;5009620;28;20465;-78
2021/10/01 06:11:00;;;;;;;3.23;1.10;;;12.40;99.90;;;;;;5017339;28;20746;-80
2021/10/01 06:13:29;;;;;;;1.70;1.10;;;12.40;99.90;;;;;;5021396;28;20474;-77
2021/10/01 06:15:57;;;;;;;1.10;1.00;;;12.40;99.90;;;;;;5014382;28;20548;-80
2021/10/01 06:18:26;;;;;;;0.90;0.90;;;12.50;99.90;;;;;;5017697;28;20874;-78
2021/10/01 06:20:54;;;;;;;3.37;1.17;;;12.50;99.90;;;;;;5012810;28;20466;-77
2021/10/01 06:23:26;;;;;;;1.00;0.90;;;12.50;99.90;;;;;;5017690;28;20472;-78
2021/10/01 06:25:54;;;;;;;1.37;0.90;;;12.50;99.90;;;;;;5009167;28;20522;-77
2021/10/01 06:28:22;;;;;;;1.63;0.83;;;12.40;99.90;;;;;;5017621;28;20484;-78
2021/10/01 06:30:50;;;;;;;0.87;0.87;;;12.30;99.90;;;;;;5016762;28;20975;-76
2021/10/01 06:33:18;;;;;;;0.77;0.70;;;12.30;99.90;;;;;;5017541;28;20870;-78
2021/10/01 06:35:48;;;;;;;1.30;1.00;;;12.30;99.90;;;;;;5016406;28;20477;-77
2021/10/01 06:38:16;;;;;;;1.40;1.00;;;12.50;99.90;;;;;;5010102;28;20453;-75
2021/10/01 06:40:44;;;;;;;1.30;1.20;;;12.80;99.90;;;;;;5015438;28;20458;-76
2021/10/01 06:43:14;;;;;;;1.53;0.93;;;13.00;99.90;;;;;;5009390;28;20481;-79
2021/10/01 06:45:45;;;;;;;3.13;1.20;;;13.00;99.90;;;;;;5013987;28;20496;-79
2021/10/01 06:48:22;;;;;;;2.72;1.40;;;13.00;99.90;;;;;;5016591;28;20944;-78
2021/10/01 06:51:20;;;;;;;1.20;1.10;;;13.00;99.90;;;;;;5016888;28;20203;-78
2021/10/01 08:19:49;;;;;;;1.40;0.80;;;18.20;99.90;;;;;;5012728;28;20456;-77
2021/10/01 08:22:17;;;;;;;0.97;0.77;;;18.30;99.90;;;;;;5011151;28;20452;-76
2021/10/01 08:24:45;;;;;;;1.90;0.70;;;18.50;99.90;;;;;;5018104;28;20498;-77
2021/10/01 08:27:15;;;;;;;0.80;0.80;;;18.70;99.90;;;;;;5017801;28;20483;-76
2021/10/01 08:29:45;;;;;;;1.67;1.00;;;18.80;99.90;;;;;;5023271;28;20428;-77
2021/10/01 08:32:13;;;;;;;1.33;0.60;;;19.00;99.90;;;;;;5023821;28;20527;-77
2021/10/01 08:34:43;;;;;;;0.77;0.60;;;19.30;99.90;;;;;;5023449;28;21037;-75
2021/10/01 08:37:11;;;;;;;4.07;0.70;;;19.50;99.90;;;;;;5022890;28;20658;-76
2021/10/01 08:39:39;;;;;;;0.90;0.60;;;19.50;99.90;;;;;;5020915;28;20730;-77
2021/10/01 08:42:08;;;;;;;0.73;0.73;;;19.70;99.90;;;;;;5012664;28;20531;-77
2021/10/01 08:44:36;;;;;;;0.80;0.80;;;19.80;99.90;;;;;;5015890;28;20531;-77
2021/10/01 08:47:07;;;;;;;0.80;0.80;;;19.90;99.90;;;;;;5013987;28;20456;-76
2021/10/01 08:49:35;;;;;;;2.00;0.97;;;19.90;99.90;;;;;;5012730;28;20460;-78
2021/10/01 08:52:04;;;;;;;1.73;0.80;;;20.10;99.90;;;;;;5015738;28;20661;-80
2021/10/01 08:54:32;;;;;;;1.10;1.00;;;20.20;99.90;;;;;;5018375;28;20476;-78
2021/10/01 08:57:00;;;;;;;1.80;0.90;;;20.40;99.90;;;;;;5013032;28;20884;-76
2021/10/01 08:59:29;;;;;;;0.77;0.77;;;20.60;99.90;;;;;;5013207;28;20465;-79
2021/10/01 09:01:57;;;;;;;2.23;0.87;;;20.60;99.90;;;;;;5012646;28;20463;-77
2021/10/01 09:04:29;;;;;;;0.63;0.63;;;20.60;99.90;;;;;;5017880;28;20477;-78
2021/10/01 09:06:59;;;;;;;1.27;0.80;;;20.50;99.90;;;;;;5026552;28;20873;-78
2021/10/01 09:09:44;;;;;;;1.87;0.80;;;20.60;99.90;;;;;;5020295;28;20469;-79
2021/10/01 09:12:16;;;;;;;1.53;0.90;;;20.90;99.90;;;;;;5014799;28;20526;-77
2021/10/01 09:14:46;;;;;;;0.60;0.60;;;21.10;99.90;;;;;;5021682;28;20586;-80
2021/10/01 09:17:16;;;;;;;0.93;0.73;;;21.30;99.90;;;;;;5015415;28;20693;-76
2021/10/01 09:19:46;;;;;;;3.50;1.50;;;21.60;99.90;;;;;;5022229;28;20853;-76
2021/10/01 09:22:25;;;;;;;1.20;0.70;;;21.80;99.90;;;;;;5020311;28;20712;-79
2021/10/01 09:24:54;;;;;;;1.57;0.70;;;22.00;99.90;;;;;;5010882;28;20518;-79
2021/10/01 09:27:35;;;;;;;0.80;0.80;;;22.20;99.90;;;;;;5015521;28;20836;-81
2021/10/01 09:30:05;;;;;;;0.70;0.70;;;22.30;99.90;;;;;;5009106;28;20458;-78
2021/10/01 09:32:33;;;;;;;1.23;0.80;;;22.20;99.90;;;;;;5011472;28;20763;-78
2021/10/01 09:35:13;;;;;;;1.37;0.90;;;22.30;99.90;;;;;;5015003;28;20550;-77
2021/10/01 09:37:41;;;;;;;2.50;0.80;;;22.50;99.90;;;;;;5016924;28;21019;-79
2021/10/01 09:40:11;;;;;;;0.80;0.77;;;22.40;99.90;;;;;;5012828;28;21510;-74
2021/10/01 09:42:44;;;;;;;0.70;0.70;;;22.60;99.90;;;;;;5019378;28;20535;-75
2021/10/01 09:45:15;;;;;;;1.50;0.77;;;22.60;99.90;;;;;;5018413;28;20506;-77
2021/10/01 09:47:45;;;;;;;0.80;0.70;;;22.70;99.90;;;;;;5012804;28;20452;-79
2021/10/01 09:50:21;;;;;;;0.90;0.70;;;22.60;99.90;;;;;;5018090;28;20913;-77
2021/10/01 09:52:51;;;;;;;1.53;0.73;;;22.40;99.90;;;;;;5020951;28;20586;-78
2021/10/01 09:55:22;;;;;;;1.00;0.80;;;22.50;99.90;;;;;;5010964;28;20534;-79
2021/10/01 09:58:01;;;;;;;2.23;0.70;;;22.80;99.90;;;;;;5011218;28;20480;-78
2021/10/01 10:00:33;;;;;;;1.37;1.10;;;22.80;99.90;;;;;;5018224;28;20496;-78
2021/10/01 10:03:01;;;;;;;2.43;0.87;;;22.80;99.90;;;;;;5021756;28;20918;-78
2021/10/01 10:05:59;;;;;;;0.70;0.70;;;23.00;99.90;;;;;;5010902;28;21000;-76
2021/10/01 10:08:33;;;;;;;1.33;0.80;;;23.00;99.90;;;;;;5008269;28;20456;-77
2021/10/01 10:11:04;;;;;;;1.10;0.70;;;23.00;99.90;;;;;;5014741;28;20657;-78
2021/10/01 10:13:38;;;;;;;1.57;0.60;;;23.20;99.90;;;;;;5019310;28;20477;-78
2021/10/01 10:16:07;;;;;;;0.70;0.70;;;23.40;99.90;;;;;;5007822;28;20452;-77
2021/10/01 10:18:36;;;;;;;1.07;0.60;;;23.60;99.90;;;;;;5011492;28;21046;-78
2021/10/01 10:21:06;;;;;;;1.20;0.70;;;23.70;99.90;;;;;;5010960;28;20461;-78
2021/10/01 10:23:35;;;;;;;0.80;0.80;;;23.60;99.90;;;;;;5010714;28;21308;-79
2021/10/01 10:26:03;;;;;;;0.97;0.60;;;23.40;99.90;;;;;;5010416;28;20465;-76
2021/10/01 10:28:34;;;;;;;1.40;0.70;;;23.40;99.90;;;;;;5014538;28;20864;-78
2021/10/01 10:31:02;;;;;;;0.80;0.80;;;23.50;99.90;;;;;;5013787;28;20909;-77
2021/10/01 10:33:39;;;;;;;1.27;0.87;;;23.70;99.90;;;;;;5016482;28;20486;-79
2021/10/01 10:36:28;;;;;;;1.63;0.77;;;23.80;99.90;;;;;;5015505;28;20466;-79
2021/10/01 10:38:57;;;;;;;1.10;0.70;;;24.10;99.90;;;;;;5009235;28;20472;-79
2021/10/01 10:41:27;;;;;;;2.30;1.30;;;24.30;99.90;;;;;;5011715;28;20449;-78
2021/10/01 10:43:55;;;;;;;0.87;0.70;;;24.40;99.90;;;;;;5007665;28;20557;-76
2021/10/01 10:46:47;;;;;;;0.60;0.60;;;24.60;99.90;;;;;;5011131;28;20579;-77
2021/10/01 10:49:21;;;;;;;1.20;0.63;;;24.70;99.90;;;;;;4991208;28;20527;-75
2021/10/01 10:52:07;;;;;;;0.83;0.70;;;25.00;99.90;;;;;;5017194;28;20449;-78
2021/10/01 10:54:37;;;;;;;1.33;0.70;;;25.30;99.90;;;;;;5007532;28;21079;-78
2021/10/01 10:57:30;;;;;;;0.70;0.67;;;25.80;99.90;;;;;;5013087;28;20544;-76
2021/10/01 11:00:03;;;;;;;1.70;0.70;;;26.10;99.90;;;;;;5013251;28;21027;-79
2021/10/01 11:02:35;;;;;;;1.80;0.80;;;26.30;99.90;;;;;;5013005;28;20492;-80
2021/10/01 11:05:28;;;;;;;0.77;0.70;;;26.40;99.90;;;;;;5018721;28;20972;-78
2021/10/01 11:08:00;;;;;;;2.10;0.70;;;26.20;99.90;;;;;;5012733;28;20453;-80
2021/10/01 11:10:40;;;;;;;0.90;0.70;;;25.80;99.90;;;;;;5015283;28;20571;-81
2021/10/01 11:13:30;;;;;;;1.63;0.60;;;25.60;99.90;;;;;;5015091;28;20484;-80
2021/10/01 11:16:19;;;;;;;0.90;0.60;;;25.20;99.90;;;;;;5004425;28;20394;-79
2021/10/01 11:19:07;;;;;;;1.20;0.70;;;25.00;99.90;;;;;;5018466;28;20469;-78
2021/10/01 11:21:42;;;;;;;1.07;0.70;;;25.20;99.90;;;;;;5019348;28;20460;-80
2021/10/01 11:24:13;;;;;;;1.00;0.60;;;25.00;99.90;;;;;;5011342;28;20882;-78
2021/10/01 11:26:43;;;;;;;0.60;0.60;;;24.80;99.90;;;;;;5021935;28;20448;-78
2021/10/01 11:29:22;;;;;;;0.90;0.60;;;24.70;99.90;;;;;;5017915;28;20456;-78
2021/10/01 11:31:53;;;;;;;1.37;0.70;;;24.60;99.90;;;;;;5015706;28;20444;-79
2021/10/01 11:34:37;;;;;;;0.80;0.80;;;24.50;99.90;;;;;;5024024;28;20472;-81
2021/10/01 11:37:19;;;;;;;2.17;0.60;;;24.40;99.90;;;;;;5016643;28;20863;-79
2021/10/01 11:39:49;;;;;;;0.60;0.60;;;24.10;99.90;;;;;;5014391;28;20469;-77
2021/10/01 11:42:25;;;;;;;0.90;0.70;;;24.10;99.90;;;;;;5014905;28;20888;-78
2021/10/01 11:44:54;;;;;;;0.70;0.70;;;24.10;99.90;;;;;;5026547;28;20510;-80
2021/10/01 11:47:22;;;;;;;1.90;0.80;;;24.10;99.90;;;;;;5037808;28;20452;-79
2021/10/01 11:49:55;;;;;;;1.10;0.90;;;24.20;99.90;;;;;;5024630;28;20202;-77
2021/10/01 11:52:25;;;;;;;1.03;0.97;;;24.30;99.90;;;;;;5014910;28;20498;-78
2021/10/01 11:54:57;;;;;;;1.90;0.70;;;24.20;99.90;;;;;;5004700;28;20969;-75
2021/10/01 11:57:33;;;;;;;0.60;0.60;;;24.20;99.90;;;;;;5024790;28;20455;-78
2021/10/01 12:00:04;;;;;;;0.70;0.70;;;24.30;99.90;;;;;;5011236;28;20468;-78
2021/10/01 12:02:34;;;;;;;0.80;0.70;;;24.30;99.90;;;;;;5015080;28;20456;-78
2021/10/01 12:05:30;;;;;;;1.53;0.80;;;24.30;99.90;;;;;;5020613;28;20452;-79
2021/10/01 12:08:00;;;;;;;1.83;0.80;;;24.20;99.90;;;;;;5015565;28;20949;-78
2021/10/01 12:10:32;;;;;;;1.00;0.90;;;24.20;99.90;;;;;;5015322;28;20781;-79
2021/10/01 12:13:22;;;;;;;0.73;0.70;;;24.40;99.90;;;;;;5017774;28;20555;-78
2021/10/01 12:15:54;;;;;;;0.70;0.60;;;24.40;99.90;;;;;;5020207;28;20583;-80
2021/10/01 12:18:31;;;;;;;0.80;0.77;;;24.40;99.90;;;;;;5021883;28;20456;-80
2021/10/01 12:21:02;;;;;;;1.27;1.20;;;24.40;99.90;;;;;;5022364;28;20467;-77
2021/10/01 12:23:35;;;;;;;0.70;0.70;;;24.40;99.90;;;;;;5015815;28;20481;-78
2021/10/01 12:26:29;;;;;;;0.90;0.80;;;24.20;99.90;;;;;;5018266;28;20461;-78
2021/10/01 12:29:13;;;;;;;0.90;0.90;;;24.30;99.90;;;;;;5017613;28;20865;-79
2021/10/01 12:31:45;;;;;;;1.50;0.70;;;24.20;99.90;;;;;;5017759;28;20456;-78
2021/10/01 12:34:19;;;;;;;0.60;0.60;;;24.20;99.90;;;;;;5018016;28;21223;-78
2021/10/01 12:36:49;;;;;;;3.10;0.90;;;24.00;99.90;;;;;;5020042;28;20488;-76
2021/10/01 12:39:19;;;;;;;0.80;0.70;;;24.00;99.90;;;;;;5017764;28;20538;-78
2021/10/01 12:41:55;;;;;;;1.03;0.80;;;23.90;99.90;;;;;;5010822;28;20542;-78
2021/10/01 12:44:24;;;;;;;1.07;0.83;;;24.00;99.90;;;;;;5011172;28;20472;-80
2021/10/01 12:46:54;;;;;;;1.20;1.10;;;24.10;99.90;;;;;;5018141;28;20543;-78
2021/10/01 12:49:28;;;;;;;1.23;0.80;;;24.20;99.90;;;;;;5015904;28;20456;-76
2021/10/01 12:52:06;;;;;;;1.13;1.00;;;24.20;99.90;;;;;;5022509;28;20468;-77
2021/10/01 12:54:35;;;;;;;0.80;0.80;;;24.30;99.90;;;;;;5015653;28;20991;-76
2021/10/01 12:57:14;;;;;;;1.60;0.80;;;24.40;99.90;;;;;;5009400;28;20460;-78
2021/10/01 12:59:44;;;;;;;0.93;0.83;;;24.40;99.90;;;;;;5010696;28;20554;-81
2021/10/01 13:02:14;;;;;;;0.80;0.80;;;24.30;99.90;;;;;;5020604;28;20452;-81
2021/10/01 13:05:00;;;;;;;0.90;0.90;;;24.30;99.90;;;;;;5020217;28;20480;-78
2021/10/01 13:07:34;;;;;;;1.20;0.80;;;24.20;99.90;;;;;;5023438;28;20460;-77
2021/10/01 13:10:18;;;;;;;0.80;0.80;;;24.20;99.90;;;;;;5022778;28;20463;-78
2021/10/01 13:12:50;;;;;;;1.47;0.97;;;24.30;99.90;;;;;;5016522;28;20473;-80
2021/10/01 13:15:22;;;;;;;1.50;1.10;;;24.30;99.90;;;;;;5021849;28;21026;-79
2021/10/01 13:18:06;;;;;;;1.47;1.10;;;24.30;99.90;;;;;;5018347;28;20927;-77
2021/10/01 13:20:38;;;;;;;1.80;1.00;;;24.40;99.90;;;;;;5018575;28;20614;-79
2021/10/01 13:23:08;;;;;;;1.30;1.20;;;24.30;99.90;;;;;;5018204;28;20472;-79
2021/10/01 13:25:44;;;;;;;1.30;0.93;;;24.20;99.90;;;;;;5021956;28;20511;-79
2021/10/01 13:28:15;;;;;;;1.67;1.20;;;24.10;99.90;;;;;;5017164;28;20486;-81
2021/10/01 13:30:45;;;;;;;1.50;1.10;;;24.20;99.90;;;;;;5016364;28;20467;-81
2021/10/01 13:33:14;;;;;;;1.07;0.97;;;24.20;99.90;;;;;;5018900;28;20897;-77
2021/10/01 13:35:42;;;;;;;1.40;1.30;;;24.10;99.90;;;;;;5008256;28;20507;-77
2021/10/01 13:38:11;;;;;;;1.40;1.10;;;24.10;99.90;;;;;;5016710;28;21081;-77
2021/10/01 13:40:42;;;;;;;1.30;1.20;;;24.00;99.90;;;;;;5017552;28;21105;-77
2021/10/01 13:43:10;;;;;;;2.07;1.40;;;24.00;99.90;;;;;;5015732;28;20484;-76
2021/10/01 13:45:41;;;;;;;2.07;1.30;;;24.10;99.90;;;;;;5012137;28;20519;-76
2021/10/01 13:48:10;;;;;;;1.20;1.10;;;24.20;99.90;;;;;;5022140;28;20464;-78
2021/10/01 13:50:38;;;;;;;1.77;1.20;;;24.20;99.90;;;;;;5008522;28;20457;-78
2021/10/01 13:53:06;;;;;;;2.10;1.50;;;24.20;99.90;;;;;;5013693;28;21332;-77
2021/10/01 13:55:34;;;;;;;1.10;1.00;;;24.10;99.90;;;;;;5011502;28;20519;-78
2021/10/01 13:58:02;;;;;;;1.33;1.23;;;24.20;99.90;;;;;;5017911;28;20554;-77
2021/10/01 14:00:31;;;;;;;1.60;1.40;;;24.20;99.90;;;;;;5014653;28;20522;-81
2021/10/01 14:03:00;;;;;;;1.60;1.50;;;24.30;99.90;;;;;;5018174;28;20806;-77
2021/10/01 14:05:29;;;;;;;1.70;1.60;;;24.30;99.90;;;;;;5019587;28;20707;-79
2021/10/01 14:07:57;;;;;;;2.20;1.60;;;24.00;99.90;;;;;;5019807;28;20992;-79
2021/10/01 14:10:27;;;;;;;3.53;2.43;;;24.00;99.90;;;;;;5024274;28;20964;-79
2021/10/01 14:12:56;;;;;;;1.73;1.63;;;23.80;99.90;;;;;;5023235;28;20573;-80
2021/10/01 14:15:26;;;;;;;1.93;1.83;;;23.70;99.90;;;;;;5024312;28;20518;-77
2021/10/01 14:17:54;;;;;;;3.30;2.10;;;23.80;99.90;;;;;;5022513;28;20452;-82
2021/10/01 14:20:26;;;;;;;3.10;1.87;;;23.70;99.90;;;;;;5022324;28;20526;-81
2021/10/01 14:22:55;;;;;;;2.17;1.70;;;23.80;99.90;;;;;;5023573;28;21062;-80
2021/10/01 14:25:25;;;;;;;2.40;2.20;;;23.70;99.90;;;;;;5024543;28;20968;-80
2021/10/01 14:27:56;;;;;;;2.43;2.07;;;23.60;99.90;;;;;;5024304;28;20467;-80
2021/10/01 14:30:28;;;;;;;1.97;1.60;;;23.60;99.90;;;;;;5024914;28;20655;-77
2021/10/01 14:32:57;;;;;;;2.83;1.53;;;23.80;99.90;;;;;;5022649;28;20460;-80
2021/10/01 14:35:37;;;;;;;2.28;1.80;;;24.00;99.90;;;;;;5019763;28;20957;-78